»·PEaware :: SWA1298 KPHX-MMPR

SWA1298 :: KPHX-MMPR

FLIGHT INFORMATION

Flight Status: Arrived
Operator:
Southwest Airlines
More flights by this operator :: More flights under this callsign
Pilot: Daniel W. (24238)
Aircraft: BOEING 737-700
(B737)
More flights by this aircraft type
Origin: KPHX Phoenix Sky Harbor Intl
United States
Destination: MMPR Lic Gustavo Diaz Ordaz Intl
Mexico
More flights between these airports :: More routes between these airports
Route: STRRM1 TUS J92 VYLLA UT12 CUL UJ7 MZT J141 OBRUG
File this flight plan on PilotEdge
Remarks: PBN / A1D1O1S2T1 NAV / RNVD1E1A1 RNP10 DOF / 210112 REG / N405WN EET / MMZT0023 CODE / A4C135 PER / C
Altitude:
(Current/Filed)
41,000ft
Speed:
(Current/Filed)
444kts
Departed: 12-Jan-21 11:19 AM
Arrived: 12-Jan-21 01:22 PM
Distance/Time
Traveled:
846nm/2:03
Distance/Time
To Go:
Arrived

Flight Plot

Page will automatically refresh every two minutes.

Flight plan parsing failed; only flown route is shown


Map Options




Map Legend


Flown Route
Filed Route
Departure Airport
Arrival Airport
Navaid (VOR, NDB)
Fix

Horizontal Profiles

Position Reports

Time Latitude Longitude Heading Altitude Ground
Speed
12-Jan-21 10:27 33.433415 -111.999337 1 1143ft 0kts
12-Jan-21 10:28 33.433415 -111.999337 1 1143ft 0kts
12-Jan-21 10:29 33.433415 -111.999337 1 1143ft 0kts
12-Jan-21 10:30 33.433415 -111.999337 1 1143ft 0kts
12-Jan-21 10:30 33.433415 -111.999337 1 1143ft 0kts
12-Jan-21 10:32 33.433415 -111.999337 1 1143ft 0kts
12-Jan-21 10:32 33.433415 -111.999337 1 1143ft 0kts
12-Jan-21 10:33 33.433415 -111.999337 1 1143ft 0kts
12-Jan-21 10:35 33.433415 -111.999337 1 1143ft 0kts
12-Jan-21 10:36 33.433415 -111.999337 1 1143ft 0kts
12-Jan-21 10:36 33.433415 -111.999337 1 1143ft 0kts
12-Jan-21 10:37 33.433415 -111.999337 1 1143ft 0kts
12-Jan-21 10:38 33.433415 -111.999337 1 1143ft 0kts
12-Jan-21 10:39 33.433415 -111.999337 1 1143ft 0kts
12-Jan-21 10:40 33.433415 -111.999337 1 1143ft 0kts
12-Jan-21 10:41 33.433415 -111.999337 1 1143ft 0kts
12-Jan-21 10:42 33.433415 -111.999337 1 1143ft 0kts
12-Jan-21 10:43 33.433415 -111.999337 1 1143ft 0kts
12-Jan-21 10:44 33.433415 -111.999337 1 1143ft 0kts
12-Jan-21 10:45 33.433415 -111.999337 1 1143ft 0kts
12-Jan-21 10:46 33.433415 -111.999337 1 1143ft 0kts
12-Jan-21 10:47 33.433415 -111.999337 1 1143ft 0kts
12-Jan-21 10:48 33.433415 -111.999337 1 1143ft 0kts
12-Jan-21 10:49 33.433415 -111.999337 1 1143ft 0kts
12-Jan-21 10:50 33.433415 -111.999337 1 1143ft 0kts
12-Jan-21 10:51 33.433415 -111.999337 1 1143ft 0kts
12-Jan-21 10:52 33.433415 -111.999337 1 1143ft 0kts
12-Jan-21 10:53 33.433415 -111.999337 1 1143ft 0kts
12-Jan-21 10:54 33.433415 -111.999337 1 1143ft 0kts
12-Jan-21 10:55 33.433415 -111.999337 1 1143ft 0kts
12-Jan-21 10:56 33.433415 -111.999337 1 1143ft 0kts
12-Jan-21 10:57 33.433415 -111.999337 1 1143ft 0kts
12-Jan-21 10:58 33.433415 -111.999337 1 1143ft 0kts
12-Jan-21 10:59 33.433415 -111.999337 1 1143ft 0kts
12-Jan-21 11:00 33.433415 -111.999337 1 1143ft 0kts
12-Jan-21 11:01 33.433415 -111.999337 1 1143ft 0kts
12-Jan-21 11:02 33.433415 -111.999337 1 1143ft 0kts
12-Jan-21 11:03 33.433415 -111.999337 1 1143ft 0kts
12-Jan-21 11:04 33.433415 -111.999337 1 1143ft 0kts
12-Jan-21 11:05 33.433415 -111.999337 1 1143ft 0kts
12-Jan-21 11:06 33.433415 -111.999337 1 1143ft 0kts
12-Jan-21 11:07 33.433415 -111.999337 1 1143ft 0kts
12-Jan-21 11:08 33.433415 -111.999337 1 1143ft 0kts
12-Jan-21 11:09 33.433398 -111.999338 1 1143ft 1kts
12-Jan-21 11:10 33.432843 -111.998872 274 1143ft 2kts
12-Jan-21 11:11 33.432837 -111.998725 269 1143ft 2kts
12-Jan-21 11:12 33.432837 -111.998737 269 1143ft 0kts
12-Jan-21 11:13 33.432837 -111.998739 269 1143ft 0kts
12-Jan-21 11:14 33.432837 -112.002779 269 1143ft 26kts
12-Jan-21 11:15 33.432836 -112.011644 269 1143ft 29kts
12-Jan-21 11:16 33.432836 -112.021362 270 1143ft 24kts
12-Jan-21 11:17 33.432167 -112.026981 179 1143ft 3kts
12-Jan-21 11:18 33.431029 -112.024114 90 1143ft 48kts
12-Jan-21 11:19 33.431671 -111.977020 86 2261ft 186kts
12-Jan-21 11:20 33.434338 -111.903153 87 4930ft 237kts
12-Jan-21 11:21 33.406234 -111.831307 151 8070ft 280kts
12-Jan-21 11:22 33.329233 -111.804799 188 11277ft 321kts
12-Jan-21 11:23 33.233123 -111.833666 193 13803ft 376kts
12-Jan-21 11:24 33.130803 -111.870812 209 17214ft 393kts
12-Jan-21 11:25 33.034524 -111.939621 207 20176ft 416kts
12-Jan-21 11:26 32.920353 -111.928350 149 22742ft 436kts
12-Jan-21 11:27 32.827236 -111.833663 130 25034ft 448kts
12-Jan-21 11:28 32.740470 -111.724245 129 27075ft 461kts
12-Jan-21 11:29 32.651505 -111.611990 128 28836ft 473kts
12-Jan-21 11:30 32.560435 -111.496455 127 30374ft 484kts
12-Jan-21 11:31 32.467381 -111.379351 128 31898ft 488kts
12-Jan-21 11:32 32.374748 -111.263210 128 33552ft 484kts
12-Jan-21 11:33 32.282515 -111.147601 128 34968ft 482kts
12-Jan-21 11:34 32.189983 -111.032449 129 36224ft 481kts
12-Jan-21 11:35 32.088454 -110.930653 157 37268ft 492kts
12-Jan-21 11:36 31.952418 -110.920349 184 38565ft 485kts
12-Jan-21 11:37 31.817027 -110.927653 183 39344ft 488kts
12-Jan-21 11:38 31.680908 -110.934007 183 39369ft 486kts
12-Jan-21 11:39 31.546130 -110.940205 183 39356ft 484kts
12-Jan-21 11:40 31.411696 -110.946336 184 39351ft 483kts
12-Jan-21 11:41 31.280719 -110.918730 154 39351ft 484kts
12-Jan-21 11:42 31.161473 -110.844609 151 39349ft 484kts
12-Jan-21 11:43 31.042641 -110.771195 151 39357ft 484kts
12-Jan-21 11:44 30.923835 -110.697965 152 39356ft 483kts
12-Jan-21 11:45 30.804749 -110.625050 152 39354ft 483kts
12-Jan-21 11:46 30.685338 -110.552196 152 39347ft 483kts
12-Jan-21 11:47 30.566498 -110.479901 153 39339ft 483kts
12-Jan-21 11:48 30.447343 -110.407614 153 39333ft 482kts
12-Jan-21 11:49 30.328353 -110.335628 154 39324ft 482kts
12-Jan-21 11:50 30.209856 -110.264132 154 39310ft 482kts
12-Jan-21 11:51 30.090727 -110.192449 154 39304ft 481kts
12-Jan-21 11:52 29.972033 -110.121089 154 39297ft 481kts
12-Jan-21 11:53 29.853176 -110.049973 154 39293ft 481kts
12-Jan-21 11:54 29.734019 -109.978950 154 39290ft 480kts
12-Jan-21 11:55 29.615280 -109.908450 155 39285ft 480kts
12-Jan-21 11:56 29.496330 -109.838068 155 39280ft 480kts
12-Jan-21 11:57 29.377746 -109.767897 155 39295ft 479kts
12-Jan-21 11:58 29.259445 -109.697937 156 39293ft 478kts
12-Jan-21 12:00 29.141284 -109.628385 157 39292ft 477kts
12-Jan-21 12:01 29.022966 -109.558934 157 39262ft 476kts
12-Jan-21 12:02 28.905204 -109.489992 157 39238ft 476kts
12-Jan-21 12:03 28.787408 -109.421202 158 39230ft 475kts
12-Jan-21 12:04 28.669566 -109.352561 158 39230ft 475kts
12-Jan-21 12:05 28.552105 -109.284222 158 39221ft 474kts
12-Jan-21 12:06 28.434824 -109.216217 159 39208ft 473kts
12-Jan-21 12:07 28.317231 -109.148318 159 39205ft 473kts
12-Jan-21 12:08 28.199689 -109.080540 159 39202ft 473kts
12-Jan-21 12:09 28.082381 -109.013317 159 39202ft 472kts
12-Jan-21 12:10 27.965149 -108.946094 160 39190ft 471kts
12-Jan-21 12:11 27.848447 -108.879131 161 39154ft 471kts
12-Jan-21 12:12 27.731349 -108.812253 161 39152ft 471kts
12-Jan-21 12:13 27.614141 -108.745489 161 39153ft 471kts
12-Jan-21 12:13 27.516768 -108.690147 161 39154ft 470kts
12-Jan-21 12:15 27.380153 -108.612683 161 39156ft 471kts
12-Jan-21 12:15 27.282386 -108.557378 162 39157ft 471kts
12-Jan-21 12:17 27.145696 -108.480235 162 39158ft 471kts
12-Jan-21 12:17 27.047733 -108.425078 162 39158ft 472kts
12-Jan-21 12:18 26.930760 -108.359362 163 39162ft 473kts
12-Jan-21 12:20 26.792724 -108.281821 163 39160ft 475kts
12-Jan-21 12:20 26.694290 -108.226930 163 39157ft 473kts
12-Jan-21 12:21 26.577626 -108.163655 170 39151ft 447kts
12-Jan-21 12:22 26.460921 -108.118781 173 39154ft 445kts
12-Jan-21 12:23 26.343574 -108.073972 173 39150ft 446kts
12-Jan-21 12:24 26.226148 -108.028974 173 39147ft 446kts
12-Jan-21 12:25 26.108708 -107.983968 174 39144ft 444kts
12-Jan-21 12:26 25.991594 -107.939363 174 39141ft 447kts
12-Jan-21 12:27 25.873917 -107.894681 174 39135ft 441kts
12-Jan-21 12:28 25.756856 -107.850334 174 39134ft 448kts
12-Jan-21 12:29 25.639852 -107.806149 174 39130ft 442kts
12-Jan-21 12:30 25.522139 -107.761677 174 39124ft 450kts
12-Jan-21 12:31 25.405035 -107.717401 175 39116ft 443kts
12-Jan-21 12:32 25.287776 -107.673219 175 39109ft 446kts
12-Jan-21 12:33 25.170435 -107.629245 175 39098ft 443kts
12-Jan-21 12:34 25.053219 -107.585235 176 39096ft 444kts
12-Jan-21 12:35 24.936025 -107.541380 176 39092ft 444kts
12-Jan-21 12:36 24.819167 -107.497692 176 39087ft 443kts
12-Jan-21 12:37 24.705075 -107.434132 158 39093ft 484kts
12-Jan-21 12:38 24.595161 -107.348094 159 39091ft 483kts
12-Jan-21 12:39 24.484616 -107.264033 159 39091ft 478kts
12-Jan-21 12:40 24.375253 -107.181139 159 39094ft 482kts
12-Jan-21 12:41 24.265038 -107.097780 160 39097ft 481kts
12-Jan-21 12:42 24.154605 -107.014162 160 39098ft 482kts
12-Jan-21 12:43 24.043698 -106.930592 159 38733ft 487kts
12-Jan-21 12:44 23.932801 -106.847219 159 37736ft 480kts
12-Jan-21 12:45 23.821659 -106.763719 158 37103ft 484kts
12-Jan-21 12:46 23.709326 -106.679499 158 37097ft 490kts
12-Jan-21 12:47 23.597539 -106.596000 158 37095ft 487kts
12-Jan-21 12:48 23.485547 -106.512632 158 37088ft 487kts
12-Jan-21 12:49 23.374050 -106.429406 158 37084ft 485kts
12-Jan-21 12:50 23.262941 -106.346911 158 37081ft 482kts
12-Jan-21 12:51 23.151334 -106.268413 167 37079ft 464kts
12-Jan-21 12:52 23.033860 -106.217076 172 37081ft 455kts
12-Jan-21 12:53 22.915860 -106.166929 172 37082ft 453kts
12-Jan-21 12:54 22.796232 -106.116237 172 37085ft 468kts
12-Jan-21 12:55 22.675126 -106.064999 172 37088ft 466kts
12-Jan-21 12:56 22.554339 -106.014108 172 37093ft 467kts
12-Jan-21 12:57 22.433337 -105.963185 172 37098ft 466kts
12-Jan-21 12:58 22.312448 -105.912261 172 36468ft 466kts
12-Jan-21 12:59 22.190637 -105.861092 171 33306ft 473kts
12-Jan-21 13:00 22.068050 -105.809800 167 30542ft 466kts
12-Jan-21 13:01 21.949326 -105.759985 166 28094ft 448kts
12-Jan-21 13:02 21.835213 -105.712340 165 25674ft 432kts
12-Jan-21 13:03 21.728779 -105.655817 152 23327ft 423kts
12-Jan-21 13:04 21.630554 -105.590147 153 21036ft 408kts
12-Jan-21 13:05 21.535308 -105.527195 152 18796ft 395kts
12-Jan-21 13:06 21.442978 -105.466501 152 16547ft 383kts
12-Jan-21 13:07 21.353563 -105.407881 152 14329ft 370kts
12-Jan-21 13:08 21.267288 -105.351393 152 12369ft 353kts
12-Jan-21 13:09 21.186648 -105.298650 151 10819ft 327kts
12-Jan-21 13:10 21.112561 -105.250136 151 9831ft 287kts
12-Jan-21 13:11 21.047015 -105.207389 150 8115ft 272kts
12-Jan-21 13:12 20.983026 -105.165693 150 6877ft 266kts
12-Jan-21 13:13 20.921902 -105.125822 148 5700ft 248kts
12-Jan-21 13:14 20.869618 -105.080557 141 4610ft 231kts
12-Jan-21 13:15 20.819469 -105.091676 227 3487ft 199kts
12-Jan-21 13:16 20.786682 -105.132481 227 2633ft 165kts
12-Jan-21 13:17 20.758416 -105.164426 227 1976ft 137kts
12-Jan-21 13:18 20.732683 -105.193840 226 1321ft 135kts
12-Jan-21 13:19 20.707136 -105.223222 226 545ft 134kts
12-Jan-21 13:20 20.682871 -105.250996 227 31ft 90kts
12-Jan-21 13:21 20.676112 -105.256402 106 31ft 9kts
12-Jan-21 13:22 20.679990 -105.251710 46 31ft 28kts
12-Jan-21 13:23 20.679812 -105.248344 116 31ft 13kts
12-Jan-21 13:24 20.679521 -105.246961 47 31ft 0kts
12-Jan-21 13:25 20.679521 -105.246961 47 31ft 0kts
12-Jan-21 13:26 20.679521 -105.246961 47 31ft 0kts

Navigation Log

Ident Type
Flight plan parsing failed, navigation log unavailable